Aérodrome :
LOGIN :

S'inscrire | Disclaimer

   EN    FR    IT 

 










Légende :    VFR   VFR Marginal   IFR   IFR Intensif   IFR Très Intensif
Visi : 
Plafond : 
>= 8 km
>= 3000ft
5 à 8 km
1000 à 3000 ft
1500m à 5 km
500 à 1000 ft
800 à 1500m
200 à 500 ft
< 800m
< 200 ft
Symboles :   Orages  Brouillard  Fortes neiges  Fortes précipitations  Vent > 20 kt
SIGMETs :   Divers  Orages  Givrage  Turbulence  Onde Orograph.  Cendres Volcan.






- Altitude de l'aérodrome : 120 ft
- Code IATA : MME


EGNV - Durham Tees valley

DERNIER METAR :
  • 061220Z 35025KT 9000 VCSH FEW018 SCT030 12/07 Q0993

METARs EXPIRÉS :
  • 061150Z 35022G33KT 9999 FEW022 SCT030 12/07 Q0992
  • 061120Z 35025KT 9999 FEW018 BKN022 12/07 Q0992
  • 061050Z 34023KT 9999 FEW018 BKN023 11/07 Q0991
  • 061020Z 33019G30KT 9999 FEW018 BKN022 11/07 Q0990
  • 060950Z 33019G30KT 310V010 9999 VCSH FEW018 SCT020 10/07 Q0990

TAF TAF EGNV
Valide du 06 à 09h jusqu'au 06 à 17h UTC


060806Z 0609/0617 31018G30KT 9999 SCT020
BECMG 0609/0612 36020G32KT
TEMPO 0609/0617 6000 SHRA
PROB30
TEMPO 0609/0617 4000 +SHRA BKN014CB
ATIS : +44 9012 018 111



MET'MAP, la Météo Aéronautique d'un coup d'oeil ! - Copyright ORBIFLY Décembre 2007 - Disclaimer

ORBIFLY MET'MAP TEAM :

Programmation & Développement : Alexandra Zaïnal
Sur une idée originale de : Baudouin d'Aumeries
Assistance à la programmation : Marc-Olivier Méhu
Soutien technique & logistique : Manuel Goepfert

Contact : metmap@orbifly.com




SOURCES & CREDITS :

   NOAA